sensor_id;sensor_type;location;lat;lon;timestamp;P1;durP1;ratioP1;P2;durP2;ratioP2
34926;SDS011;21132;48.308;14.274;2022-08-27T00:01:49;14.70;;;8.85;;
34926;SDS011;21132;48.308;14.274;2022-08-27T00:04:15;12.65;;;9.25;;
34926;SDS011;21132;48.308;14.274;2022-08-27T00:06:40;16.33;;;8.43;;
34926;SDS011;21132;48.308;14.274;2022-08-27T00:09:06;13.00;;;10.00;;
34926;SDS011;21132;48.308;14.274;2022-08-27T00:11:32;11.98;;;8.88;;
34926;SDS011;21132;48.308;14.274;2022-08-27T00:13:59;15.93;;;10.00;;
34926;SDS011;21132;48.308;14.274;2022-08-27T00:16:25;12.45;;;8.80;;
34926;SDS011;21132;48.308;14.274;2022-08-27T00:18:52;12.20;;;8.27;;
34926;SDS011;21132;48.308;14.274;2022-08-27T00:21:19;11.68;;;8.35;;
34926;SDS011;21132;48.308;14.274;2022-08-27T00:23:45;10.13;;;8.70;;
34926;SDS011;21132;48.308;14.274;2022-08-27T00:26:12;15.32;;;8.98;;
34926;SDS011;21132;48.308;14.274;2022-08-27T00:28:39;14.13;;;10.32;;
34926;SDS011;21132;48.308;14.274;2022-08-27T00:31:05;9.75;;;8.60;;
34926;SDS011;21132;48.308;14.274;2022-08-27T00:33:32;11.13;;;8.98;;
34926;SDS011;21132;48.308;14.274;2022-08-27T00:35:58;17.98;;;10.73;;
34926;SDS011;21132;48.308;14.274;2022-08-27T00:38:24;15.40;;;10.65;;
34926;SDS011;21132;48.308;14.274;2022-08-27T00:40:51;16.65;;;11.98;;
34926;SDS011;21132;48.308;14.274;2022-08-27T00:43:24;15.23;;;11.75;;
34926;SDS011;21132;48.308;14.274;2022-08-27T00:45:52;19.08;;;12.18;;
34926;SDS011;21132;48.308;14.274;2022-08-27T00:48:23;22.33;;;11.95;;
34926;SDS011;21132;48.308;14.274;2022-08-27T00:50:52;13.95;;;11.73;;
34926;SDS011;21132;48.308;14.274;2022-08-27T00:53:21;15.93;;;11.40;;
34926;SDS011;21132;48.308;14.274;2022-08-27T00:55:54;21.13;;;11.68;;
34926;SDS011;21132;48.308;14.274;2022-08-27T00:58:27;12.82;;;10.25;;
34926;SDS011;21132;48.308;14.274;2022-08-27T01:00:58;14.98;;;12.05;;
34926;SDS011;21132;48.308;14.274;2022-08-27T01:03:24;13.13;;;9.98;;
34926;SDS011;21132;48.308;14.274;2022-08-27T01:05:51;15.45;;;11.20;;
34926;SDS011;21132;48.308;14.274;2022-08-27T01:08:21;11.15;;;9.05;;
34926;SDS011;21132;48.308;14.274;2022-08-27T01:10:49;13.23;;;10.45;;
34926;SDS011;21132;48.308;14.274;2022-08-27T01:13:17;18.60;;;11.98;;
34926;SDS011;21132;48.308;14.274;2022-08-27T01:15:45;14.13;;;11.13;;
34926;SDS011;21132;48.308;14.274;2022-08-27T01:18:12;16.65;;;11.07;;
34926;SDS011;21132;48.308;14.274;2022-08-27T01:20:44;13.40;;;9.80;;
34926;SDS011;21132;48.308;14.274;2022-08-27T01:23:23;12.60;;;9.83;;
34926;SDS011;21132;48.308;14.274;2022-08-27T01:26:02;17.67;;;11.35;;
34926;SDS011;21132;48.308;14.274;2022-08-27T01:28:30;15.60;;;10.98;;
34926;SDS011;21132;48.308;14.274;2022-08-27T01:30:56;17.33;;;11.13;;
34926;SDS011;21132;48.308;14.274;2022-08-27T01:33:22;11.23;;;9.55;;
34926;SDS011;21132;48.308;14.274;2022-08-27T01:35:49;16.77;;;10.10;;
34926;SDS011;21132;48.308;14.274;2022-08-27T01:38:16;15.23;;;10.13;;
34926;SDS011;21132;48.308;14.274;2022-08-27T01:40:43;15.07;;;10.82;;
34926;SDS011;21132;48.308;14.274;2022-08-27T01:43:09;15.40;;;9.57;;
34926;SDS011;21132;48.308;14.274;2022-08-27T01:45:37;16.15;;;10.60;;
34926;SDS011;21132;48.308;14.274;2022-08-27T01:48:05;12.50;;;10.43;;
34926;SDS011;21132;48.308;14.274;2022-08-27T01:50:33;15.00;;;11.43;;
34926;SDS011;21132;48.308;14.274;2022-08-27T01:53:03;18.75;;;9.93;;
34926;SDS011;21132;48.308;14.274;2022-08-27T01:55:30;18.33;;;10.55;;
34926;SDS011;21132;48.308;14.274;2022-08-27T01:57:56;14.18;;;10.80;;
34926;SDS011;21132;48.308;14.274;2022-08-27T02:00:26;13.68;;;10.57;;
34926;SDS011;21132;48.308;14.274;2022-08-27T02:02:55;13.55;;;10.63;;
34926;SDS011;21132;48.308;14.274;2022-08-27T02:05:21;17.85;;;12.20;;
34926;SDS011;21132;48.308;14.274;2022-08-27T02:07:47;15.60;;;12.30;;
34926;SDS011;21132;48.308;14.274;2022-08-27T02:10:15;17.98;;;11.98;;
34926;SDS011;21132;48.308;14.274;2022-08-27T02:12:45;18.50;;;11.48;;
34926;SDS011;21132;48.308;14.274;2022-08-27T02:15:11;16.52;;;11.73;;
34926;SDS011;21132;48.308;14.274;2022-08-27T02:17:37;17.50;;;13.48;;
34926;SDS011;21132;48.308;14.274;2022-08-27T02:20:03;15.18;;;11.00;;
34926;SDS011;21132;48.308;14.274;2022-08-27T02:22:33;19.95;;;11.68;;
34926;SDS011;21132;48.308;14.274;2022-08-27T02:24:59;20.73;;;12.70;;
34926;SDS011;21132;48.308;14.274;2022-08-27T02:27:26;16.40;;;12.05;;
34926;SDS011;21132;48.308;14.274;2022-08-27T02:29:52;17.85;;;12.65;;
34926;SDS011;21132;48.308;14.274;2022-08-27T02:32:19;18.92;;;12.95;;
34926;SDS011;21132;48.308;14.274;2022-08-27T02:34:46;15.90;;;12.13;;
34926;SDS011;21132;48.308;14.274;2022-08-27T02:37:13;16.83;;;12.70;;
34926;SDS011;21132;48.308;14.274;2022-08-27T02:39:39;18.40;;;13.57;;
34926;SDS011;21132;48.308;14.274;2022-08-27T02:42:06;18.77;;;13.55;;
34926;SDS011;21132;48.308;14.274;2022-08-27T02:44:32;18.20;;;13.63;;
34926;SDS011;21132;48.308;14.274;2022-08-27T02:46:59;17.85;;;13.65;;
34926;SDS011;21132;48.308;14.274;2022-08-27T02:49:29;18.73;;;12.32;;
34926;SDS011;21132;48.308;14.274;2022-08-27T02:51:55;19.05;;;12.38;;
34926;SDS011;21132;48.308;14.274;2022-08-27T02:54:21;15.77;;;11.25;;
34926;SDS011;21132;48.308;14.274;2022-08-27T02:56:48;14.43;;;11.98;;
34926;SDS011;21132;48.308;14.274;2022-08-27T02:59:16;21.42;;;12.93;;
34926;SDS011;21132;48.308;14.274;2022-08-27T03:01:42;16.13;;;12.23;;
34926;SDS011;21132;48.308;14.274;2022-08-27T03:04:08;14.73;;;11.20;;
34926;SDS011;21132;48.308;14.274;2022-08-27T03:06:34;22.23;;;14.23;;
34926;SDS011;21132;48.308;14.274;2022-08-27T03:09:00;22.63;;;14.13;;
34926;SDS011;21132;48.308;14.274;2022-08-27T03:11:25;19.27;;;14.20;;
34926;SDS011;21132;48.308;14.274;2022-08-27T03:13:51;23.63;;;12.95;;
34926;SDS011;21132;48.308;14.274;2022-08-27T03:16:17;19.10;;;12.55;;
34926;SDS011;21132;48.308;14.274;2022-08-27T03:18:43;15.85;;;11.07;;
34926;SDS011;21132;48.308;14.274;2022-08-27T03:21:14;14.82;;;11.85;;
34926;SDS011;21132;48.308;14.274;2022-08-27T03:23:44;16.65;;;12.27;;
34926;SDS011;21132;48.308;14.274;2022-08-27T03:26:12;15.13;;;11.48;;
34926;SDS011;21132;48.308;14.274;2022-08-27T03:28:38;19.85;;;12.93;;
34926;SDS011;21132;48.308;14.274;2022-08-27T03:31:06;17.42;;;12.30;;
34926;SDS011;21132;48.308;14.274;2022-08-27T03:33:37;15.52;;;12.80;;
34926;SDS011;21132;48.308;14.274;2022-08-27T03:36:04;15.65;;;13.07;;
34926;SDS011;21132;48.308;14.274;2022-08-27T03:38:31;18.27;;;13.98;;
34926;SDS011;21132;48.308;14.274;2022-08-27T03:40:57;14.98;;;12.60;;
34926;SDS011;21132;48.308;14.274;2022-08-27T03:43:23;23.35;;;13.93;;
34926;SDS011;21132;48.308;14.274;2022-08-27T03:45:50;15.95;;;12.98;;
34926;SDS011;21132;48.308;14.274;2022-08-27T03:48:16;14.88;;;13.25;;
34926;SDS011;21132;48.308;14.274;2022-08-27T03:50:43;22.60;;;14.70;;
34926;SDS011;21132;48.308;14.274;2022-08-27T03:53:11;16.83;;;12.57;;
34926;SDS011;21132;48.308;14.274;2022-08-27T03:55:38;27.33;;;16.13;;
34926;SDS011;21132;48.308;14.274;2022-08-27T03:58:06;19.20;;;14.52;;
34926;SDS011;21132;48.308;14.274;2022-08-27T04:00:33;17.92;;;12.82;;
34926;SDS011;21132;48.308;14.274;2022-08-27T04:02:59;16.55;;;13.90;;
34926;SDS011;21132;48.308;14.274;2022-08-27T04:05:24;17.25;;;13.02;;
34926;SDS011;21132;48.308;14.274;2022-08-27T04:07:50;18.67;;;13.70;;
34926;SDS011;21132;48.308;14.274;2022-08-27T04:10:16;20.13;;;14.48;;
34926;SDS011;21132;48.308;14.274;2022-08-27T04:12:43;16.50;;;13.20;;
34926;SDS011;21132;48.308;14.274;2022-08-27T04:15:10;17.20;;;13.07;;
34926;SDS011;21132;48.308;14.274;2022-08-27T04:17:37;16.75;;;13.00;;
34926;SDS011;21132;48.308;14.274;2022-08-27T04:20:03;18.10;;;14.10;;
34926;SDS011;21132;48.308;14.274;2022-08-27T04:22:31;15.68;;;11.68;;
34926;SDS011;21132;48.308;14.274;2022-08-27T04:24:58;13.90;;;11.45;;
34926;SDS011;21132;48.308;14.274;2022-08-27T04:27:25;16.52;;;12.45;;
34926;SDS011;21132;48.308;14.274;2022-08-27T04:29:55;19.02;;;12.18;;
34926;SDS011;21132;48.308;14.274;2022-08-27T04:32:22;14.65;;;11.75;;
34926;SDS011;21132;48.308;14.274;2022-08-27T04:34:53;16.00;;;11.70;;
34926;SDS011;21132;48.308;14.274;2022-08-27T04:37:23;18.25;;;11.95;;
34926;SDS011;21132;48.308;14.274;2022-08-27T04:39:50;17.23;;;12.43;;
34926;SDS011;21132;48.308;14.274;2022-08-27T04:42:16;18.63;;;12.45;;
34926;SDS011;21132;48.308;14.274;2022-08-27T04:44:44;15.50;;;11.63;;
34926;SDS011;21132;48.308;14.274;2022-08-27T04:47:11;17.15;;;12.27;;
34926;SDS011;21132;48.308;14.274;2022-08-27T04:49:37;17.30;;;12.32;;
34926;SDS011;21132;48.308;14.274;2022-08-27T04:52:03;16.17;;;11.23;;
34926;SDS011;21132;48.308;14.274;2022-08-27T04:54:30;17.02;;;12.25;;
34926;SDS011;21132;48.308;14.274;2022-08-27T04:56:56;14.75;;;11.10;;
34926;SDS011;21132;48.308;14.274;2022-08-27T04:59:21;16.27;;;12.13;;
34926;SDS011;21132;48.308;14.274;2022-08-27T05:01:48;24.92;;;13.10;;
34926;SDS011;21132;48.308;14.274;2022-08-27T05:04:14;14.88;;;10.43;;
34926;SDS011;21132;48.308;14.274;2022-08-27T05:06:42;17.65;;;12.13;;
34926;SDS011;21132;48.308;14.274;2022-08-27T05:09:10;17.65;;;10.48;;
34926;SDS011;21132;48.308;14.274;2022-08-27T05:11:38;15.00;;;10.10;;
34926;SDS011;21132;48.308;14.274;2022-08-27T05:14:04;15.02;;;9.90;;
34926;SDS011;21132;48.308;14.274;2022-08-27T05:16:33;15.82;;;9.77;;
34926;SDS011;21132;48.308;14.274;2022-08-27T05:19:00;15.02;;;10.07;;
34926;SDS011;21132;48.308;14.274;2022-08-27T05:21:29;11.80;;;9.07;;
34926;SDS011;21132;48.308;14.274;2022-08-27T05:23:57;18.10;;;10.00;;
34926;SDS011;21132;48.308;14.274;2022-08-27T05:26:25;15.00;;;9.95;;
34926;SDS011;21132;48.308;14.274;2022-08-27T05:28:52;14.63;;;9.77;;
34926;SDS011;21132;48.308;14.274;2022-08-27T05:31:19;12.20;;;8.95;;
34926;SDS011;21132;48.308;14.274;2022-08-27T05:33:46;13.27;;;10.27;;
34926;SDS011;21132;48.308;14.274;2022-08-27T05:36:20;11.75;;;9.48;;
34926;SDS011;21132;48.308;14.274;2022-08-27T05:38:54;14.13;;;9.75;;
34926;SDS011;21132;48.308;14.274;2022-08-27T05:41:25;14.18;;;10.57;;
34926;SDS011;21132;48.308;14.274;2022-08-27T05:43:53;11.65;;;9.02;;
34926;SDS011;21132;48.308;14.274;2022-08-27T05:46:22;19.48;;;10.63;;
34926;SDS011;21132;48.308;14.274;2022-08-27T05:48:49;13.07;;;9.55;;
34926;SDS011;21132;48.308;14.274;2022-08-27T05:53:43;14.23;;;10.88;;
34926;SDS011;21132;48.308;14.274;2022-08-27T05:56:15;15.90;;;11.00;;
34926;SDS011;21132;48.308;14.274;2022-08-27T05:58:42;17.63;;;11.30;;
34926;SDS011;21132;48.308;14.274;2022-08-27T06:01:27;15.68;;;12.23;;
34926;SDS011;21132;48.308;14.274;2022-08-27T06:03:54;15.23;;;11.70;;
34926;SDS011;21132;48.308;14.274;2022-08-27T06:06:20;13.60;;;11.98;;
34926;SDS011;21132;48.308;14.274;2022-08-27T06:08:50;18.70;;;11.18;;
34926;SDS011;21132;48.308;14.274;2022-08-27T06:11:18;19.10;;;10.45;;
34926;SDS011;21132;48.308;14.274;2022-08-27T06:13:44;13.00;;;11.07;;
34926;SDS011;21132;48.308;14.274;2022-08-27T06:16:12;13.45;;;10.15;;
34926;SDS011;21132;48.308;14.274;2022-08-27T06:18:40;15.05;;;10.68;;
34926;SDS011;21132;48.308;14.274;2022-08-27T06:21:08;12.88;;;10.82;;
34926;SDS011;21132;48.308;14.274;2022-08-27T06:23:34;18.50;;;10.85;;
34926;SDS011;21132;48.308;14.274;2022-08-27T06:26:00;15.10;;;10.82;;
34926;SDS011;21132;48.308;14.274;2022-08-27T06:28:29;14.82;;;11.00;;
34926;SDS011;21132;48.308;14.274;2022-08-27T06:31:08;16.33;;;11.38;;
34926;SDS011;21132;48.308;14.274;2022-08-27T06:33:37;15.95;;;10.75;;
34926;SDS011;21132;48.308;14.274;2022-08-27T06:36:05;16.80;;;12.30;;
34926;SDS011;21132;48.308;14.274;2022-08-27T06:38:33;13.43;;;9.73;;
34926;SDS011;21132;48.308;14.274;2022-08-27T06:41:01;13.05;;;9.50;;
34926;SDS011;21132;48.308;14.274;2022-08-27T06:43:28;13.60;;;10.73;;
34926;SDS011;21132;48.308;14.274;2022-08-27T06:45:54;14.18;;;10.38;;
34926;SDS011;21132;48.308;14.274;2022-08-27T06:48:20;13.18;;;9.65;;
34926;SDS011;21132;48.308;14.274;2022-08-27T06:50:45;14.20;;;10.35;;
34926;SDS011;21132;48.308;14.274;2022-08-27T06:53:11;13.30;;;9.25;;
34926;SDS011;21132;48.308;14.274;2022-08-27T06:55:41;14.77;;;10.23;;
34926;SDS011;21132;48.308;14.274;2022-08-27T06:58:08;13.25;;;10.05;;
34926;SDS011;21132;48.308;14.274;2022-08-27T07:00:34;12.95;;;9.60;;
34926;SDS011;21132;48.308;14.274;2022-08-27T07:03:00;13.88;;;9.25;;
34926;SDS011;21132;48.308;14.274;2022-08-27T07:05:27;13.30;;;10.13;;
34926;SDS011;21132;48.308;14.274;2022-08-27T07:07:53;10.95;;;8.38;;
34926;SDS011;21132;48.308;14.274;2022-08-27T07:10:19;13.65;;;10.73;;
34926;SDS011;21132;48.308;14.274;2022-08-27T07:12:45;15.45;;;9.65;;
34926;SDS011;21132;48.308;14.274;2022-08-27T07:15:11;11.68;;;8.82;;
34926;SDS011;21132;48.308;14.274;2022-08-27T07:17:37;11.68;;;8.43;;
34926;SDS011;21132;48.308;14.274;2022-08-27T07:20:05;11.73;;;9.55;;
34926;SDS011;21132;48.308;14.274;2022-08-27T07:22:32;11.68;;;8.52;;
34926;SDS011;21132;48.308;14.274;2022-08-27T07:24:58;14.68;;;8.43;;
34926;SDS011;21132;48.308;14.274;2022-08-27T07:27:23;15.93;;;9.55;;
34926;SDS011;21132;48.308;14.274;2022-08-27T07:29:49;14.18;;;8.38;;
34926;SDS011;21132;48.308;14.274;2022-08-27T07:32:15;13.50;;;8.23;;
34926;SDS011;21132;48.308;14.274;2022-08-27T07:34:41;10.23;;;7.70;;
34926;SDS011;21132;48.308;14.274;2022-08-27T07:37:07;8.35;;;7.40;;
34926;SDS011;21132;48.308;14.274;2022-08-27T07:39:33;9.52;;;7.30;;
34926;SDS011;21132;48.308;14.274;2022-08-27T07:41:59;8.98;;;7.53;;
34926;SDS011;21132;48.308;14.274;2022-08-27T07:44:43;13.50;;;8.32;;
34926;SDS011;21132;48.308;14.274;2022-08-27T07:47:09;13.88;;;7.85;;
34926;SDS011;21132;48.308;14.274;2022-08-27T07:49:34;11.35;;;7.53;;
34926;SDS011;21132;48.308;14.274;2022-08-27T07:52:02;9.93;;;6.85;;
34926;SDS011;21132;48.308;14.274;2022-08-27T07:54:29;9.27;;;7.15;;
34926;SDS011;21132;48.308;14.274;2022-08-27T07:56:55;17.65;;;8.07;;
34926;SDS011;21132;48.308;14.274;2022-08-27T07:59:20;9.55;;;6.18;;
34926;SDS011;21132;48.308;14.274;2022-08-27T08:01:47;10.27;;;7.10;;
34926;SDS011;21132;48.308;14.274;2022-08-27T08:04:13;15.48;;;8.10;;
34926;SDS011;21132;48.308;14.274;2022-08-27T08:06:40;12.38;;;7.35;;
34926;SDS011;21132;48.308;14.274;2022-08-27T08:09:06;14.00;;;8.27;;
34926;SDS011;21132;48.308;14.274;2022-08-27T08:11:32;10.88;;;6.95;;
34926;SDS011;21132;48.308;14.274;2022-08-27T08:13:58;12.50;;;7.35;;
34926;SDS011;21132;48.308;14.274;2022-08-27T08:16:25;9.73;;;7.60;;
34926;SDS011;21132;48.308;14.274;2022-08-27T08:18:52;13.10;;;7.72;;
34926;SDS011;21132;48.308;14.274;2022-08-27T08:21:18;11.35;;;7.95;;
34926;SDS011;21132;48.308;14.274;2022-08-27T08:23:44;9.02;;;6.90;;
34926;SDS011;21132;48.308;14.274;2022-08-27T08:26:11;12.25;;;6.80;;
34926;SDS011;21132;48.308;14.274;2022-08-27T08:28:37;8.60;;;6.43;;
34926;SDS011;21132;48.308;14.274;2022-08-27T08:31:04;9.77;;;5.85;;
34926;SDS011;21132;48.308;14.274;2022-08-27T08:33:30;10.25;;;5.72;;
34926;SDS011;21132;48.308;14.274;2022-08-27T08:36:06;11.02;;;6.45;;
34926;SDS011;21132;48.308;14.274;2022-08-27T08:38:37;11.95;;;6.90;;
34926;SDS011;21132;48.308;14.274;2022-08-27T08:41:04;9.15;;;6.45;;
34926;SDS011;21132;48.308;14.274;2022-08-27T08:43:33;10.38;;;5.88;;
34926;SDS011;21132;48.308;14.274;2022-08-27T08:46:13;9.45;;;5.70;;
34926;SDS011;21132;48.308;14.274;2022-08-27T08:49:04;13.07;;;7.28;;
34926;SDS011;21132;48.308;14.274;2022-08-27T08:51:41;14.00;;;6.80;;
34926;SDS011;21132;48.308;14.274;2022-08-27T08:54:08;8.07;;;6.43;;
34926;SDS011;21132;48.308;14.274;2022-08-27T08:56:42;7.57;;;6.68;;
34926;SDS011;21132;48.308;14.274;2022-08-27T09:00:00;7.93;;;6.40;;
34926;SDS011;21132;48.308;14.274;2022-08-27T09:02:20;10.82;;;6.38;;
34926;SDS011;21132;48.308;14.274;2022-08-27T09:04:46;11.55;;;6.20;;
34926;SDS011;21132;48.308;14.274;2022-08-27T09:12:44;9.38;;;5.90;;
34926;SDS011;21132;48.308;14.274;2022-08-27T09:15:15;9.27;;;6.18;;
34926;SDS011;21132;48.308;14.274;2022-08-27T09:17:45;8.35;;;6.32;;
34926;SDS011;21132;48.308;14.274;2022-08-27T09:20:13;8.88;;;5.95;;
34926;SDS011;21132;48.308;14.274;2022-08-27T09:22:49;7.93;;;5.78;;
34926;SDS011;21132;48.308;14.274;2022-08-27T09:25:37;9.48;;;5.43;;
34926;SDS011;21132;48.308;14.274;2022-08-27T09:28:07;8.88;;;5.35;;
34926;SDS011;21132;48.308;14.274;2022-08-27T09:31:06;7.85;;;5.63;;
34926;SDS011;21132;48.308;14.274;2022-08-27T09:33:34;8.55;;;5.55;;
34926;SDS011;21132;48.308;14.274;2022-08-27T09:36:02;9.57;;;6.43;;
34926;SDS011;21132;48.308;14.274;2022-08-27T09:38:32;7.53;;;5.13;;
34926;SDS011;21132;48.308;14.274;2022-08-27T09:41:04;6.00;;;5.20;;
34926;SDS011;21132;48.308;14.274;2022-08-27T09:43:33;7.88;;;5.53;;
34926;SDS011;21132;48.308;14.274;2022-08-27T09:46:14;8.10;;;5.32;;
34926;SDS011;21132;48.308;14.274;2022-08-27T09:48:46;7.65;;;5.13;;
34926;SDS011;21132;48.308;14.274;2022-08-27T09:51:13;8.32;;;5.97;;
34926;SDS011;21132;48.308;14.274;2022-08-27T09:56:36;5.78;;;5.07;;
34926;SDS011;21132;48.308;14.274;2022-08-27T09:59:11;10.00;;;6.70;;
34926;SDS011;21132;48.308;14.274;2022-08-27T10:04:16;8.38;;;6.65;;
34926;SDS011;21132;48.308;14.274;2022-08-27T10:06:50;8.80;;;5.85;;
34926;SDS011;21132;48.308;14.274;2022-08-27T10:09:19;7.97;;;5.90;;
34926;SDS011;21132;48.308;14.274;2022-08-27T10:14:33;7.80;;;5.30;;
34926;SDS011;21132;48.308;14.274;2022-08-27T10:22:44;9.43;;;5.72;;
34926;SDS011;21132;48.308;14.274;2022-08-27T10:25:38;12.32;;;5.50;;
34926;SDS011;21132;48.308;14.274;2022-08-27T10:34:14;8.10;;;5.63;;
34926;SDS011;21132;48.308;14.274;2022-08-27T10:39:02;8.73;;;5.70;;
34926;SDS011;21132;48.308;14.274;2022-08-27T10:52:57;8.73;;;5.68;;
34926;SDS011;21132;48.308;14.274;2022-08-27T10:55:37;7.90;;;5.20;;
34926;SDS011;21132;48.308;14.274;2022-08-27T10:58:23;5.65;;;4.60;;
34926;SDS011;21132;48.308;14.274;2022-08-27T11:04:07;8.07;;;5.05;;
34926;SDS011;21132;48.308;14.274;2022-08-27T11:06:43;8.27;;;4.83;;
34926;SDS011;21132;48.308;14.274;2022-08-27T11:09:21;5.40;;;4.57;;
34926;SDS011;21132;48.308;14.274;2022-08-27T11:12:10;7.78;;;4.68;;
34926;SDS011;21132;48.308;14.274;2022-08-27T11:17:29;6.63;;;4.60;;
34926;SDS011;21132;48.308;14.274;2022-08-27T11:28:17;4.65;;;3.88;;
34926;SDS011;21132;48.308;14.274;2022-08-27T11:30:54;11.73;;;4.47;;
34926;SDS011;21132;48.308;14.274;2022-08-27T11:39:14;10.05;;;4.80;;
34926;SDS011;21132;48.308;14.274;2022-08-27T11:44:38;7.60;;;4.75;;
34926;SDS011;21132;48.308;14.274;2022-08-27T11:47:08;6.78;;;4.40;;
34926;SDS011;21132;48.308;14.274;2022-08-27T11:49:47;6.25;;;4.13;;
34926;SDS011;21132;48.308;14.274;2022-08-27T11:52:29;6.78;;;4.30;;
34926;SDS011;21132;48.308;14.274;2022-08-27T11:55:10;8.10;;;4.65;;
34926;SDS011;21132;48.308;14.274;2022-08-27T11:57:38;6.47;;;4.43;;
34926;SDS011;21132;48.308;14.274;2022-08-27T12:00:12;6.85;;;3.90;;
34926;SDS011;21132;48.308;14.274;2022-08-27T12:03:34;6.82;;;4.15;;
34926;SDS011;21132;48.308;14.274;2022-08-27T12:05:45;7.60;;;4.53;;
34926;SDS011;21132;48.308;14.274;2022-08-27T12:10:53;10.13;;;4.20;;
34926;SDS011;21132;48.308;14.274;2022-08-27T12:13:44;10.77;;;3.78;;
34926;SDS011;21132;48.308;14.274;2022-08-27T12:25:19;5.15;;;3.95;;
34926;SDS011;21132;48.308;14.274;2022-08-27T12:27:56;5.35;;;3.10;;
34926;SDS011;21132;48.308;14.274;2022-08-27T12:32:58;4.95;;;3.92;;
34926;SDS011;21132;48.308;14.274;2022-08-27T12:35:48;7.30;;;4.15;;
34926;SDS011;21132;48.308;14.274;2022-08-27T12:38:21;6.68;;;3.50;;
34926;SDS011;21132;48.308;14.274;2022-08-27T12:41:24;6.22;;;4.15;;
34926;SDS011;21132;48.308;14.274;2022-08-27T12:44:29;7.63;;;4.30;;
34926;SDS011;21132;48.308;14.274;2022-08-27T12:46:53;5.18;;;4.05;;
34926;SDS011;21132;48.308;14.274;2022-08-27T12:49:33;6.38;;;3.90;;
34926;SDS011;21132;48.308;14.274;2022-08-27T12:52:09;5.50;;;3.78;;
34926;SDS011;21132;48.308;14.274;2022-08-27T13:00:28;5.57;;;3.72;;
34926;SDS011;21132;48.308;14.274;2022-08-27T13:05:48;6.68;;;4.13;;
34926;SDS011;21132;48.308;14.274;2022-08-27T13:08:31;6.80;;;4.05;;
34926;SDS011;21132;48.308;14.274;2022-08-27T13:11:33;4.65;;;3.55;;
34926;SDS011;21132;48.308;14.274;2022-08-27T13:14:06;4.22;;;3.10;;
34926;SDS011;21132;48.308;14.274;2022-08-27T13:16:34;5.18;;;3.53;;
34926;SDS011;21132;48.308;14.274;2022-08-27T13:19:03;6.93;;;4.22;;
34926;SDS011;21132;48.308;14.274;2022-08-27T13:21:30;7.80;;;4.20;;
34926;SDS011;21132;48.308;14.274;2022-08-27T13:23:58;7.53;;;4.05;;
34926;SDS011;21132;48.308;14.274;2022-08-27T13:26:29;5.80;;;4.03;;
34926;SDS011;21132;48.308;14.274;2022-08-27T13:28:58;8.43;;;3.72;;
34926;SDS011;21132;48.308;14.274;2022-08-27T13:31:26;3.90;;;3.33;;
34926;SDS011;21132;48.308;14.274;2022-08-27T13:33:54;5.40;;;3.42;;
34926;SDS011;21132;48.308;14.274;2022-08-27T13:36:25;9.43;;;3.40;;
34926;SDS011;21132;48.308;14.274;2022-08-27T13:38:55;8.02;;;3.78;;
34926;SDS011;21132;48.308;14.274;2022-08-27T13:41:26;15.65;;;5.00;;
34926;SDS011;21132;48.308;14.274;2022-08-27T13:43:55;6.00;;;3.70;;
34926;SDS011;21132;48.308;14.274;2022-08-27T13:46:28;5.15;;;3.13;;
34926;SDS011;21132;48.308;14.274;2022-08-27T13:48:55;8.37;;;3.70;;
34926;SDS011;21132;48.308;14.274;2022-08-27T13:51:24;5.57;;;3.28;;
34926;SDS011;21132;48.308;14.274;2022-08-27T13:53:58;5.85;;;3.75;;
34926;SDS011;21132;48.308;14.274;2022-08-27T13:59:21;10.50;;;4.32;;
34926;SDS011;21132;48.308;14.274;2022-08-27T14:07:07;7.40;;;4.00;;
34926;SDS011;21132;48.308;14.274;2022-08-27T14:09:51;4.43;;;4.03;;
34926;SDS011;21132;48.308;14.274;2022-08-27T14:12:28;5.82;;;3.90;;
34926;SDS011;21132;48.308;14.274;2022-08-27T14:14:58;6.40;;;4.63;;
34926;SDS011;21132;48.308;14.274;2022-08-27T14:17:42;7.40;;;3.45;;
34926;SDS011;21132;48.308;14.274;2022-08-27T14:20:10;5.95;;;3.70;;
34926;SDS011;21132;48.308;14.274;2022-08-27T14:22:38;4.93;;;3.40;;
34926;SDS011;21132;48.308;14.274;2022-08-27T14:25:04;7.22;;;3.90;;
34926;SDS011;21132;48.308;14.274;2022-08-27T14:27:30;4.97;;;3.17;;
34926;SDS011;21132;48.308;14.274;2022-08-27T14:29:56;4.60;;;3.85;;
34926;SDS011;21132;48.308;14.274;2022-08-27T14:32:22;6.47;;;3.55;;
34926;SDS011;21132;48.308;14.274;2022-08-27T14:34:48;5.38;;;3.63;;
34926;SDS011;21132;48.308;14.274;2022-08-27T14:37:14;4.13;;;3.22;;
34926;SDS011;21132;48.308;14.274;2022-08-27T14:39:40;7.07;;;3.55;;
34926;SDS011;21132;48.308;14.274;2022-08-27T14:42:07;3.55;;;3.15;;
34926;SDS011;21132;48.308;14.274;2022-08-27T14:44:34;6.57;;;2.80;;
34926;SDS011;21132;48.308;14.274;2022-08-27T14:47:01;4.50;;;3.42;;
34926;SDS011;21132;48.308;14.274;2022-08-27T14:49:30;8.50;;;3.38;;
34926;SDS011;21132;48.308;14.274;2022-08-27T14:52:02;4.38;;;3.30;;
34926;SDS011;21132;48.308;14.274;2022-08-27T14:54:29;8.88;;;3.80;;
34926;SDS011;21132;48.308;14.274;2022-08-27T14:56:55;5.50;;;3.40;;
34926;SDS011;21132;48.308;14.274;2022-08-27T14:59:23;3.92;;;3.53;;
34926;SDS011;21132;48.308;14.274;2022-08-27T15:01:50;4.22;;;2.95;;
34926;SDS011;21132;48.308;14.274;2022-08-27T15:04:17;10.18;;;3.58;;
34926;SDS011;21132;48.308;14.274;2022-08-27T15:06:43;4.45;;;3.03;;
34926;SDS011;21132;48.308;14.274;2022-08-27T15:09:09;4.93;;;3.63;;
34926;SDS011;21132;48.308;14.274;2022-08-27T15:11:35;5.20;;;3.28;;
34926;SDS011;21132;48.308;14.274;2022-08-27T15:14:04;6.60;;;3.45;;
34926;SDS011;21132;48.308;14.274;2022-08-27T15:16:42;4.97;;;3.17;;
34926;SDS011;21132;48.308;14.274;2022-08-27T15:19:09;4.03;;;3.28;;
34926;SDS011;21132;48.308;14.274;2022-08-27T15:21:37;4.50;;;3.67;;
34926;SDS011;21132;48.308;14.274;2022-08-27T15:24:07;5.85;;;3.55;;
34926;SDS011;21132;48.308;14.274;2022-08-27T15:26:40;4.65;;;3.20;;
34926;SDS011;21132;48.308;14.274;2022-08-27T15:29:06;6.47;;;3.45;;
34926;SDS011;21132;48.308;14.274;2022-08-27T15:31:32;4.68;;;3.67;;
34926;SDS011;21132;48.308;14.274;2022-08-27T15:33:59;7.15;;;3.58;;
34926;SDS011;21132;48.308;14.274;2022-08-27T15:36:24;4.90;;;3.53;;
34926;SDS011;21132;48.308;14.274;2022-08-27T15:38:50;6.18;;;3.95;;
34926;SDS011;21132;48.308;14.274;2022-08-27T15:41:18;5.50;;;3.40;;
34926;SDS011;21132;48.308;14.274;2022-08-27T15:43:44;5.85;;;3.72;;
34926;SDS011;21132;48.308;14.274;2022-08-27T15:46:09;6.15;;;3.90;;
34926;SDS011;21132;48.308;14.274;2022-08-27T15:48:35;7.68;;;3.72;;
34926;SDS011;21132;48.308;14.274;2022-08-27T15:51:03;4.97;;;3.42;;
34926;SDS011;21132;48.308;14.274;2022-08-27T15:53:33;7.75;;;3.90;;
34926;SDS011;21132;48.308;14.274;2022-08-27T15:55:59;10.70;;;3.67;;
34926;SDS011;21132;48.308;14.274;2022-08-27T15:58:28;10.70;;;4.38;;
34926;SDS011;21132;48.308;14.274;2022-08-27T16:00:55;10.05;;;3.63;;
34926;SDS011;21132;48.308;14.274;2022-08-27T16:03:29;10.98;;;3.90;;
34926;SDS011;21132;48.308;14.274;2022-08-27T16:05:56;6.72;;;3.40;;
34926;SDS011;21132;48.308;14.274;2022-08-27T16:08:22;9.63;;;3.58;;
34926;SDS011;21132;48.308;14.274;2022-08-27T16:10:48;9.25;;;4.15;;